Time;durP1;ratioP1;P1;durP2;ratioP2;P2;SDS_P1;SDS_P2;PMS_P1;PMS_P2;Temp;Humidity;BMP_temperature;BMP_pressure;BME280_temperature;BME280_humidity;BME280_pressure;Samples;Min_cycle;Max_cycle;Signal;HPM_P1;HPM_P2
2023/03/20 00:01:15;;;;;;;;;;;20.60;48.30;;;;;;5048614;28;19986;-65
2023/03/20 00:03:43;;;;;;;;;;;20.60;48.30;;;;;;5097176;28;19928;-64
2023/03/20 00:06:15;;;;;;;;;;;20.60;48.30;;;;;;5057567;28;19925;-62
2023/03/20 00:08:44;;;;;;;;;;;20.60;48.30;;;;;;5075178;28;19920;-63
2023/03/20 00:11:13;;;;;;;;;;;20.60;48.30;;;;;;5039938;28;19932;-62
2023/03/20 00:13:43;;;;;;;;;;;20.60;48.30;;;;;;5056952;28;19921;-62
2023/03/20 00:16:11;;;;;;;;;;;20.60;48.30;;;;;;5037908;28;19956;-63
2023/03/20 00:18:38;;;;;;;;;;;20.60;48.30;;;;;;5071984;28;19921;-58
2023/03/20 00:21:06;;;;;;;;;;;20.60;48.30;;;;;;5061634;28;19921;-62
2023/03/20 00:23:33;;;;;;;;;;;20.60;48.30;;;;;;5064852;28;19978;-59
2023/03/20 00:26:00;;;;;;;;;;;20.60;48.30;;;;;;5077457;28;19920;-61
2023/03/20 00:28:36;;;;;;;;;;;20.60;48.30;;;;;;5075343;28;19969;-62
2023/03/20 00:31:05;;;;;;;;;;;20.60;48.30;;;;;;5077569;28;19924;-63
2023/03/20 00:33:34;;;;;;;;;;;20.60;48.30;;;;;;5075289;28;19926;-61
2023/03/20 00:36:02;;;;;;;;;;;20.60;48.30;;;;;;5094097;28;19920;-63
2023/03/20 00:38:31;;;;;;;;;;;20.60;48.30;;;;;;5079054;28;19925;-62
2023/03/20 00:40:58;;;;;;;;;;;20.60;48.30;;;;;;5054161;28;19955;-61
2023/03/20 00:43:25;;;;;;;;;;;20.60;48.30;;;;;;5039407;28;19925;-60
2023/03/20 00:45:52;;;;;;;;;;;20.60;48.30;;;;;;5057338;28;19920;-62
2023/03/20 00:48:20;;;;;;;;;;;20.60;48.30;;;;;;5075063;28;20390;-62
2023/03/20 00:50:48;;;;;;;;;;;20.60;48.30;;;;;;5040288;28;19921;-61
2023/03/20 00:53:15;;;;;;;;;;;20.60;48.30;;;;;;5078831;28;19920;-62
2023/03/20 00:55:42;;;;;;;;;;;20.60;48.30;;;;;;5054143;28;20435;-63
2023/03/20 00:58:09;;;;;;;;;;;20.60;48.30;;;;;;5050338;28;19927;-61
2023/03/20 01:00:37;;;;;;;;;;;20.60;48.30;;;;;;5053840;28;19981;-62
2023/03/20 01:03:06;;;;;;;;;;;20.60;48.30;;;;;;5072324;28;19931;-60
2023/03/20 01:05:33;;;;;;;;;;;20.60;48.30;;;;;;5073760;28;20397;-62
2023/03/20 01:08:02;;;;;;;;;;;20.60;48.30;;;;;;5086056;28;19950;-62
2023/03/20 01:10:30;;;;;;;;;;;20.60;48.30;;;;;;5079429;28;19927;-63
2023/03/20 01:12:59;;;;;;;;;;;20.60;48.30;;;;;;5062484;28;19920;-62
2023/03/20 01:15:27;;;;;;;;;;;20.60;48.30;;;;;;5077500;28;20309;-61
2023/03/20 01:17:57;;;;;;;;;;;20.60;48.90;;;;;;5059255;28;19921;-62
2023/03/20 01:20:30;;;;;;;;;;;20.60;48.30;;;;;;5061209;28;19921;-63
2023/03/20 01:22:58;;;;;;;;;;;20.60;48.30;;;;;;5067867;28;19927;-61
2023/03/20 01:25:26;;;;;;;;;;;20.60;48.30;;;;;;5045676;28;19978;-64
2023/03/20 01:27:53;;;;;;;;;;;20.60;48.30;;;;;;5054411;28;19920;-60
2023/03/20 01:30:21;;;;;;;;;;;20.60;48.30;;;;;;5061381;28;19928;-63
2023/03/20 01:32:48;;;;;;;;;;;20.60;48.30;;;;;;5078842;28;19966;-61
2023/03/20 01:35:15;;;;;;;;;;;20.60;48.30;;;;;;5076425;28;19927;-60
2023/03/20 01:37:45;;;;;;;;;;;20.60;48.90;;;;;;5061763;28;19927;-60
2023/03/20 01:40:26;;;;;;;;;;;20.60;48.40;;;;;;5061408;28;19963;-62
2023/03/20 01:42:53;;;;;;;;;;;20.60;48.30;;;;;;5077175;28;19929;-60
2023/03/20 01:45:22;;;;;;;;;;;20.60;48.30;;;;;;5043995;28;19925;-61
2023/03/20 01:47:48;;;;;;;;;;;20.60;48.30;;;;;;5048413;28;19963;-63
2023/03/20 01:50:21;;;;;;;;;;;20.60;48.30;;;;;;5078551;28;19920;-60
2023/03/20 01:52:48;;;;;;;;;;;20.60;48.30;;;;;;5059556;28;19927;-61
2023/03/20 01:55:17;;;;;;;;;;;20.60;48.30;;;;;;5060614;28;19959;-62
2023/03/20 01:57:45;;;;;;;;;;;20.60;48.40;;;;;;5085891;28;19942;-64
2023/03/20 02:00:15;;;;;;;;;;;20.60;48.40;;;;;;5076815;28;20263;-60
2023/03/20 02:02:45;;;;;;;;;;;20.60;48.40;;;;;;5063074;28;19920;-61
2023/03/20 02:05:13;;;;;;;;;;;20.60;48.30;;;;;;5059801;28;19960;-60
2023/03/20 02:07:39;;;;;;;;;;;20.60;48.40;;;;;;5078579;28;19920;-63
2023/03/20 02:10:09;;;;;;;;;;;20.60;48.40;;;;;;5046497;28;19947;-61
2023/03/20 02:12:38;;;;;;;;;;;20.60;48.40;;;;;;5064491;28;20374;-62
2023/03/20 02:15:07;;;;;;;;;;;20.60;48.40;;;;;;5044829;28;19920;-61
2023/03/20 02:17:34;;;;;;;;;;;20.60;48.40;;;;;;5056977;28;19921;-63
2023/03/20 02:20:04;;;;;;;;;;;20.60;48.30;;;;;;5059239;28;19920;-62
2023/03/20 02:22:39;;;;;;;;;;;20.60;48.40;;;;;;5058402;28;19920;-61
2023/03/20 02:25:14;;;;;;;;;;;20.60;48.40;;;;;;5059497;28;19991;-60
2023/03/20 02:27:45;;;;;;;;;;;20.60;48.40;;;;;;5063116;28;19951;-61
2023/03/20 02:30:18;;;;;;;;;;;20.60;48.40;;;;;;5049854;28;19984;-63
2023/03/20 02:33:11;;;;;;;;;;;20.60;48.40;;;;;;5050490;28;19958;-62
2023/03/20 02:36:08;;;;;;;;;;;20.60;48.40;;;;;;5061539;28;19920;-62
2023/03/20 02:38:39;;;;;;;;;;;20.60;48.40;;;;;;5010557;28;19932;-62
2023/03/20 02:41:08;;;;;;;;;;;20.60;48.40;;;;;;5065600;28;20243;-62
2023/03/20 02:43:39;;;;;;;;;;;20.60;48.40;;;;;;5079816;28;19920;-62
2023/03/20 02:46:06;;;;;;;;;;;20.60;48.40;;;;;;5064648;28;19927;-60
2023/03/20 02:48:36;;;;;;;;;;;20.60;48.40;;;;;;5078522;28;19989;-64
2023/03/20 02:51:04;;;;;;;;;;;20.60;48.40;;;;;;5059931;28;19920;-62
2023/03/20 02:53:35;;;;;;;;;;;20.60;48.40;;;;;;5059882;28;19920;-62
2023/03/20 02:56:06;;;;;;;;;;;20.60;48.40;;;;;;5058099;28;20055;-62
2023/03/20 02:58:34;;;;;;;;;;;20.60;48.40;;;;;;5058331;28;20375;-60
2023/03/20 03:01:02;;;;;;;;;;;20.60;48.40;;;;;;5056171;28;19924;-62
2023/03/20 03:03:31;;;;;;;;;;;20.60;48.40;;;;;;5056143;28;19923;-62
2023/03/20 03:05:59;;;;;;;;;;;20.60;48.40;;;;;;5060950;28;19924;-63
2023/03/20 03:08:27;;;;;;;;;;;20.60;48.40;;;;;;5055743;28;19931;-64
2023/03/20 03:10:55;;;;;;;;;;;20.60;48.40;;;;;;5095265;28;19920;-62
2023/03/20 03:13:27;;;;;;;;;;;20.60;48.40;;;;;;5068490;28;19924;-62
2023/03/20 03:15:55;;;;;;;;;;;20.60;48.40;;;;;;5058059;28;19965;-62
2023/03/20 03:18:23;;;;;;;;;;;20.60;48.40;;;;;;5065938;28;20380;-62
2023/03/20 03:20:50;;;;;;;;;;;20.60;48.40;;;;;;5077951;28;19920;-62
2023/03/20 03:23:23;;;;;;;;;;;20.60;48.40;;;;;;5085711;28;19920;-60
2023/03/20 03:25:52;;;;;;;;;;;20.60;48.40;;;;;;5077691;28;19920;-62
2023/03/20 03:28:22;;;;;;;;;;;20.60;48.40;;;;;;5095490;28;19959;-64
2023/03/20 03:30:51;;;;;;;;;;;20.60;48.40;;;;;;5079155;28;19927;-62
2023/03/20 03:33:19;;;;;;;;;;;20.60;48.40;;;;;;5060542;28;19924;-59
2023/03/20 03:35:49;;;;;;;;;;;20.60;48.40;;;;;;5096226;28;19927;-60
2023/03/20 03:38:21;;;;;;;;;;;20.60;48.40;;;;;;5090913;28;20425;-63
2023/03/20 03:40:50;;;;;;;;;;;20.60;48.40;;;;;;5056282;28;19927;-61
2023/03/20 03:43:17;;;;;;;;;;;20.60;48.40;;;;;;5061366;28;19924;-62
2023/03/20 03:45:44;;;;;;;;;;;20.60;48.40;;;;;;5077218;28;19966;-63
2023/03/20 03:48:14;;;;;;;;;;;20.60;48.40;;;;;;5077570;28;20156;-60
2023/03/20 03:50:46;;;;;;;;;;;20.60;48.40;;;;;;5077622;28;19924;-61
2023/03/20 03:53:13;;;;;;;;;;;20.60;48.40;;;;;;5070580;28;19952;-61
2023/03/20 03:55:41;;;;;;;;;;;20.60;48.40;;;;;;5056926;28;19927;-60
2023/03/20 03:58:08;;;;;;;;;;;20.60;48.40;;;;;;5021166;28;19960;-60
2023/03/20 04:00:36;;;;;;;;;;;20.60;48.40;;;;;;5035748;28;19920;-60
2023/03/20 04:03:04;;;;;;;;;;;20.60;48.40;;;;;;5043718;28;19932;-62
2023/03/20 04:05:33;;;;;;;;;;;20.60;48.40;;;;;;5098275;28;20427;-63
2023/03/20 04:08:01;;;;;;;;;;;20.50;48.30;;;;;;5095168;28;19924;-64
2023/03/20 04:10:28;;;;;;;;;;;20.60;48.40;;;;;;5076105;28;19920;-62
2023/03/20 04:12:54;;;;;;;;;;;20.60;48.40;;;;;;5063061;28;19928;-61
2023/03/20 04:15:23;;;;;;;;;;;20.60;48.40;;;;;;5037147;28;19921;-62
2023/03/20 04:17:49;;;;;;;;;;;20.60;48.40;;;;;;5051927;28;19921;-62
2023/03/20 04:20:16;;;;;;;;;;;20.60;48.40;;;;;;5053635;28;19925;-61
2023/03/20 04:22:45;;;;;;;;;;;20.60;48.40;;;;;;5058218;28;20408;-63
2023/03/20 04:25:15;;;;;;;;;;;20.60;49.00;;;;;;5056807;28;19924;-62
2023/03/20 04:27:43;;;;;;;;;;;20.60;48.40;;;;;;5055151;28;19928;-63
2023/03/20 04:30:10;;;;;;;;;;;20.60;48.40;;;;;;5060388;28;19970;-62
2023/03/20 04:32:40;;;;;;;;;;;20.60;48.40;;;;;;5033806;28;19920;-62
2023/03/20 04:35:07;;;;;;;;;;;20.60;48.40;;;;;;5051182;28;19931;-62
2023/03/20 04:37:34;;;;;;;;;;;20.60;48.40;;;;;;5071708;28;19932;-61
2023/03/20 04:40:03;;;;;;;;;;;20.60;48.40;;;;;;5074566;28;19946;-61
2023/03/20 04:42:30;;;;;;;;;;;20.60;48.40;;;;;;5076958;28;19924;-61
2023/03/20 04:44:56;;;;;;;;;;;20.60;48.40;;;;;;5077035;28;19928;-63
2023/03/20 04:47:23;;;;;;;;;;;20.60;48.40;;;;;;5060088;28;20006;-63
2023/03/20 04:49:50;;;;;;;;;;;20.60;48.50;;;;;;5070015;28;20375;-60
2023/03/20 04:52:27;;;;;;;;;;;20.60;48.40;;;;;;5072311;28;19977;-63
2023/03/20 04:54:55;;;;;;;;;;;20.60;48.40;;;;;;5056504;28;19997;-60
2023/03/20 04:57:23;;;;;;;;;;;20.60;48.40;;;;;;5055898;28;19920;-62
2023/03/20 04:59:50;;;;;;;;;;;20.60;48.40;;;;;;5074695;28;19924;-59
2023/03/20 05:02:17;;;;;;;;;;;20.60;48.40;;;;;;5076321;28;19995;-63
2023/03/20 05:04:44;;;;;;;;;;;20.60;48.40;;;;;;5067397;28;20196;-62
2023/03/20 05:07:11;;;;;;;;;;;20.60;48.40;;;;;;5074344;28;19924;-62
2023/03/20 05:09:37;;;;;;;;;;;20.60;48.50;;;;;;5061313;28;19924;-62
2023/03/20 05:12:04;;;;;;;;;;;20.60;48.40;;;;;;5056226;28;19924;-62
2023/03/20 05:14:33;;;;;;;;;;;20.60;48.40;;;;;;5054737;28;19924;-62
2023/03/20 05:17:00;;;;;;;;;;;20.60;48.40;;;;;;5053854;28;19920;-62
2023/03/20 05:19:26;;;;;;;;;;;20.60;48.40;;;;;;5078069;28;20018;-61
2023/03/20 05:21:53;;;;;;;;;;;20.60;48.40;;;;;;5073423;28;19924;-63
2023/03/20 05:24:20;;;;;;;;;;;20.60;48.40;;;;;;5063726;28;19920;-63
2023/03/20 05:26:47;;;;;;;;;;;20.60;48.40;;;;;;5073519;28;20046;-62
2023/03/20 05:29:14;;;;;;;;;;;20.60;48.40;;;;;;5086474;28;20132;-62
2023/03/20 05:31:43;;;;;;;;;;;20.60;48.40;;;;;;5056685;28;19925;-62
2023/03/20 05:34:10;;;;;;;;;;;20.60;48.40;;;;;;5071035;28;19927;-65
2023/03/20 05:36:37;;;;;;;;;;;20.60;48.40;;;;;;5052136;28;19921;-61
2023/03/20 05:39:04;;;;;;;;;;;20.60;48.40;;;;;;5060442;28;19977;-62
2023/03/20 05:41:31;;;;;;;;;;;20.60;48.40;;;;;;5090673;28;19942;-62
2023/03/20 05:43:57;;;;;;;;;;;20.60;48.40;;;;;;5072839;28;19920;-62
2023/03/20 05:46:25;;;;;;;;;;;20.60;48.50;;;;;;5074365;28;19920;-62
2023/03/20 05:48:53;;;;;;;;;;;20.60;48.40;;;;;;5075676;28;19923;-61
2023/03/20 05:51:20;;;;;;;;;;;20.50;48.30;;;;;;5062947;28;19987;-63
2023/03/20 05:53:47;;;;;;;;;;;20.60;48.40;;;;;;5054351;28;19931;-63
2023/03/20 05:56:13;;;;;;;;;;;20.60;48.40;;;;;;5054123;28;19924;-64
2023/03/20 05:58:41;;;;;;;;;;;20.60;48.40;;;;;;5047758;28;19936;-62
2023/03/20 06:01:08;;;;;;;;;;;20.60;48.40;;;;;;5051632;28;19927;-63
2023/03/20 06:03:35;;;;;;;;;;;20.60;48.40;;;;;;5052382;28;19932;-60
2023/03/20 06:06:04;;;;;;;;;;;20.60;48.40;;;;;;5073087;28;19920;-64
2023/03/20 06:08:32;;;;;;;;;;;20.60;48.40;;;;;;5053641;28;19928;-62
2023/03/20 06:10:59;;;;;;;;;;;20.60;48.50;;;;;;5057429;28;19998;-62
2023/03/20 06:13:28;;;;;;;;;;;20.60;48.40;;;;;;5056217;28;20212;-61
2023/03/20 06:15:55;;;;;;;;;;;20.60;48.40;;;;;;5057585;28;19927;-62
2023/03/20 06:18:21;;;;;;;;;;;20.60;48.40;;;;;;5058156;28;19921;-61
2023/03/20 06:20:52;;;;;;;;;;;20.60;48.40;;;;;;5074487;28;20362;-63
2023/03/20 06:23:20;;;;;;;;;;;20.60;48.40;;;;;;5068834;28;19932;-62
2023/03/20 06:25:47;;;;;;;;;;;20.60;48.30;;;;;;5038997;28;19920;-64
2023/03/20 06:28:15;;;;;;;;;;;20.60;48.30;;;;;;5056762;28;19974;-62
2023/03/20 06:30:42;;;;;;;;;;;20.60;48.40;;;;;;5056744;28;19971;-62
2023/03/20 06:33:09;;;;;;;;;;;20.60;48.30;;;;;;5058179;28;19966;-63
2023/03/20 06:35:36;;;;;;;;;;;20.60;48.30;;;;;;5071852;28;20059;-60
2023/03/20 06:38:02;;;;;;;;;;;20.60;48.30;;;;;;5077552;28;19973;-61
2023/03/20 06:40:31;;;;;;;;;;;20.60;48.30;;;;;;5053289;28;19920;-63
2023/03/20 06:42:57;;;;;;;;;;;20.60;48.30;;;;;;5036754;28;19925;-62
2023/03/20 06:45:24;;;;;;;;;;;20.60;48.30;;;;;;5065469;28;19931;-64
2023/03/20 06:47:54;;;;;;;;;;;20.60;48.80;;;;;;5042682;28;19920;-63
2023/03/20 06:50:21;;;;;;;;;;;20.60;48.30;;;;;;5090563;28;19920;-63
2023/03/20 06:52:48;;;;;;;;;;;20.60;48.30;;;;;;5075493;28;19921;-61
2023/03/20 06:55:15;;;;;;;;;;;20.60;48.30;;;;;;5068311;28;19920;-58
2023/03/20 06:57:44;;;;;;;;;;;20.60;48.30;;;;;;5074946;28;19930;-63
2023/03/20 07:00:11;;;;;;;;;;;20.60;48.30;;;;;;5041489;28;19927;-63
2023/03/20 07:02:38;;;;;;;;;;;20.60;48.30;;;;;;5055456;28;19920;-64
2023/03/20 07:05:05;;;;;;;;;;;20.60;48.30;;;;;;5058527;28;19921;-64
2023/03/20 07:07:37;;;;;;;;;;;20.60;48.30;;;;;;5057802;28;19921;-62
2023/03/20 07:10:04;;;;;;;;;;;20.60;48.30;;;;;;5051278;28;19924;-63
2023/03/20 07:12:33;;;;;;;;;;;20.60;48.30;;;;;;5057778;28;19928;-62
2023/03/20 07:15:02;;;;;;;;;;;20.60;48.30;;;;;;5056158;28;19921;-61
2023/03/20 07:17:29;;;;;;;;;;;20.60;48.30;;;;;;5039245;28;19929;-62
2023/03/20 07:19:56;;;;;;;;;;;20.60;48.30;;;;;;5065435;28;19927;-63
2023/03/20 07:22:25;;;;;;;;;;;20.60;48.30;;;;;;5075973;28;19967;-62
2023/03/20 07:24:53;;;;;;;;;;;20.60;48.30;;;;;;5077383;28;19924;-61
2023/03/20 07:27:22;;;;;;;;;;;20.60;48.30;;;;;;5077327;28;19937;-62
2023/03/20 07:29:48;;;;;;;;;;;20.60;48.30;;;;;;5070498;28;19920;-61
2023/03/20 07:32:17;;;;;;;;;;;20.60;48.30;;;;;;5056786;28;20333;-62
2023/03/20 07:34:43;;;;;;;;;;;20.60;48.30;;;;;;5057482;28;19921;-60
2023/03/20 07:37:10;;;;;;;;;;;20.60;48.30;;;;;;5058843;28;19924;-59
2023/03/20 07:39:37;;;;;;;;;;;20.60;48.30;;;;;;5062229;28;19924;-61
2023/03/20 07:42:04;;;;;;;;;;;20.60;48.30;;;;;;5076923;28;19924;-63
2023/03/20 07:44:31;;;;;;;;;;;20.60;48.30;;;;;;5095171;28;19927;-63
2023/03/20 07:46:58;;;;;;;;;;;20.60;48.30;;;;;;5077117;28;19920;-62
2023/03/20 07:49:26;;;;;;;;;;;20.60;48.40;;;;;;5077236;28;19924;-63
2023/03/20 07:51:54;;;;;;;;;;;20.60;48.30;;;;;;5075886;28;19924;-62
2023/03/20 07:54:20;;;;;;;;;;;20.60;48.40;;;;;;5053303;28;19944;-60
2023/03/20 07:56:47;;;;;;;;;;;20.60;48.30;;;;;;5074430;28;19920;-61
2023/03/20 07:59:14;;;;;;;;;;;20.60;48.40;;;;;;5057373;28;19920;-61
2023/03/20 08:01:42;;;;;;;;;;;20.60;48.30;;;;;;5057516;28;19920;-62
2023/03/20 08:04:10;;;;;;;;;;;20.60;48.30;;;;;;5039395;28;20386;-63
2023/03/20 08:06:39;;;;;;;;;;;20.60;48.30;;;;;;5054723;28;19928;-61
2023/03/20 08:09:06;;;;;;;;;;;20.60;48.30;;;;;;5051125;28;19924;-62
2023/03/20 08:11:32;;;;;;;;;;;20.60;48.30;;;;;;5053506;28;19982;-62
2023/03/20 08:13:59;;;;;;;;;;;20.60;48.30;;;;;;5068851;28;20355;-62
2023/03/20 08:16:26;;;;;;;;;;;20.60;48.30;;;;;;5052946;28;19929;-62
2023/03/20 08:18:55;;;;;;;;;;;20.60;48.30;;;;;;5050864;28;19920;-62
2023/03/20 08:21:21;;;;;;;;;;;20.60;48.30;;;;;;5052733;28;19921;-61
2023/03/20 08:23:49;;;;;;;;;;;20.60;48.30;;;;;;5070362;28;19920;-62
2023/03/20 08:26:16;;;;;;;;;;;20.60;48.30;;;;;;5052587;28;20016;-62
2023/03/20 08:28:43;;;;;;;;;;;20.60;48.30;;;;;;5053025;28;20371;-61
2023/03/20 08:31:10;;;;;;;;;;;20.60;48.30;;;;;;5052492;28;19978;-61
2023/03/20 08:33:36;;;;;;;;;;;20.60;48.40;;;;;;5052083;28;19931;-61
2023/03/20 08:36:03;;;;;;;;;;;20.60;48.30;;;;;;5052614;28;19920;-61
2023/03/20 08:38:30;;;;;;;;;;;20.60;48.30;;;;;;5051803;28;19924;-62
2023/03/20 08:40:58;;;;;;;;;;;20.60;48.40;;;;;;5052570;28;19920;-61
2023/03/20 08:43:25;;;;;;;;;;;20.60;48.40;;;;;;5052240;28;19920;-61
2023/03/20 08:45:52;;;;;;;;;;;20.60;48.30;;;;;;5052889;28;19920;-63
2023/03/20 08:48:18;;;;;;;;;;;20.60;48.30;;;;;;5052550;28;20278;-62
2023/03/20 08:50:45;;;;;;;;;;;20.60;48.30;;;;;;5070459;28;20449;-61
2023/03/20 08:53:12;;;;;;;;;;;20.60;48.30;;;;;;5069503;28;19924;-63
2023/03/20 08:55:39;;;;;;;;;;;20.60;48.30;;;;;;5070149;28;19947;-61
2023/03/20 08:58:07;;;;;;;;;;;20.60;48.40;;;;;;5051516;28;20382;-62
2023/03/20 09:00:33;;;;;;;;;;;20.60;48.30;;;;;;5052065;28;19920;-62
2023/03/20 09:03:00;;;;;;;;;;;20.60;48.30;;;;;;5051752;28;19932;-61
2023/03/20 09:05:27;;;;;;;;;;;20.60;48.30;;;;;;5075734;28;20077;-62
2023/03/20 09:07:54;;;;;;;;;;;20.60;48.30;;;;;;5090176;28;19920;-63
2023/03/20 09:10:21;;;;;;;;;;;20.60;48.60;;;;;;5089637;28;19924;-62
2023/03/20 09:12:48;;;;;;;;;;;20.60;48.40;;;;;;5072009;28;19955;-61
2023/03/20 09:15:16;;;;;;;;;;;20.60;48.40;;;;;;5071810;28;19924;-61
2023/03/20 09:17:43;;;;;;;;;;;20.60;48.30;;;;;;5062426;28;19921;-62
2023/03/20 09:20:11;;;;;;;;;;;20.60;48.40;;;;;;5050988;28;20382;-61
2023/03/20 09:22:39;;;;;;;;;;;20.60;48.30;;;;;;5052231;28;19924;-62
2023/03/20 09:25:07;;;;;;;;;;;20.60;48.30;;;;;;5071023;28;19920;-63
2023/03/20 09:27:34;;;;;;;;;;;20.60;48.30;;;;;;5071787;28;19920;-61
2023/03/20 09:30:00;;;;;;;;;;;20.60;48.30;;;;;;5071308;28;19931;-61
2023/03/20 09:32:29;;;;;;;;;;;20.60;48.30;;;;;;5071850;28;20255;-62
2023/03/20 09:34:55;;;;;;;;;;;20.60;48.30;;;;;;5089872;28;19963;-62
2023/03/20 09:37:22;;;;;;;;;;;20.60;48.30;;;;;;5071329;28;19920;-63
2023/03/20 09:39:49;;;;;;;;;;;20.60;48.30;;;;;;5071192;28;19927;-62
2023/03/20 09:42:19;;;;;;;;;;;20.60;48.30;;;;;;5075565;28;19921;-62
2023/03/20 09:44:48;;;;;;;;;;;20.60;48.30;;;;;;5093700;28;20011;-61
2023/03/20 09:47:17;;;;;;;;;;;20.60;48.30;;;;;;5093994;28;19924;-61
2023/03/20 09:49:48;;;;;;;;;;;20.60;48.30;;;;;;5075305;28;19920;-63
2023/03/20 09:52:24;;;;;;;;;;;20.60;48.30;;;;;;5069744;28;19982;-62
2023/03/20 09:54:51;;;;;;;;;;;20.60;48.30;;;;;;5053137;28;19925;-62
2023/03/20 09:57:20;;;;;;;;;;;20.60;48.30;;;;;;5053477;28;19925;-63
2023/03/20 09:59:47;;;;;;;;;;;20.60;48.30;;;;;;5072863;28;19924;-61
2023/03/20 10:02:14;;;;;;;;;;;20.60;48.30;;;;;;5091093;28;19920;-62
2023/03/20 10:04:41;;;;;;;;;;;20.60;48.30;;;;;;5075458;28;20015;-61
2023/03/20 10:07:10;;;;;;;;;;;20.60;48.30;;;;;;5074877;28;19985;-62
2023/03/20 10:09:37;;;;;;;;;;;20.60;48.30;;;;;;5074941;28;19954;-61
2023/03/20 10:12:08;;;;;;;;;;;20.60;48.40;;;;;;5074993;28;19931;-62
2023/03/20 10:14:37;;;;;;;;;;;20.60;48.40;;;;;;5074856;28;19920;-62
2023/03/20 10:17:08;;;;;;;;;;;20.60;48.30;;;;;;5066777;28;19924;-63
2023/03/20 10:19:36;;;;;;;;;;;20.60;48.30;;;;;;5054480;28;20345;-62
2023/03/20 10:22:06;;;;;;;;;;;20.60;48.30;;;;;;5069895;28;20431;-62
2023/03/20 10:24:36;;;;;;;;;;;20.60;48.30;;;;;;5072697;28;19920;-63
2023/03/20 10:27:04;;;;;;;;;;;20.60;48.30;;;;;;5055563;28;19970;-62
2023/03/20 10:29:33;;;;;;;;;;;20.60;48.30;;;;;;5054099;28;19920;-62
2023/03/20 10:32:01;;;;;;;;;;;20.60;48.30;;;;;;5054954;28;19927;-60
2023/03/20 10:34:35;;;;;;;;;;;20.60;48.30;;;;;;5054462;28;19928;-60
2023/03/20 10:37:05;;;;;;;;;;;20.60;48.30;;;;;;5054931;28;19944;-60
2023/03/20 10:39:37;;;;;;;;;;;20.60;48.30;;;;;;5053766;28;19920;-59
2023/03/20 10:42:04;;;;;;;;;;;20.60;48.30;;;;;;5055569;28;19920;-61
2023/03/20 10:44:31;;;;;;;;;;;20.60;48.30;;;;;;5040859;28;19920;-61
2023/03/20 10:46:58;;;;;;;;;;;20.60;48.30;;;;;;5070252;28;19924;-61
2023/03/20 10:49:32;;;;;;;;;;;20.60;48.30;;;;;;5077855;28;19927;-60
2023/03/20 10:51:59;;;;;;;;;;;20.60;48.30;;;;;;5077700;28;19924;-60
2023/03/20 10:54:27;;;;;;;;;;;20.60;48.30;;;;;;5056012;28;19925;-60
2023/03/20 10:56:56;;;;;;;;;;;20.60;48.30;;;;;;5057568;28;20019;-61
2023/03/20 10:59:23;;;;;;;;;;;20.60;48.30;;;;;;5056329;28;19920;-62
2023/03/20 11:01:50;;;;;;;;;;;20.60;48.30;;;;;;5056353;28;19920;-60
2023/03/20 11:04:17;;;;;;;;;;;20.60;48.30;;;;;;5055563;28;19924;-63
2023/03/20 11:06:46;;;;;;;;;;;20.60;48.30;;;;;;5057818;28;19920;-60
2023/03/20 11:09:17;;;;;;;;;;;20.60;48.30;;;;;;5055820;28;19920;-61
2023/03/20 11:11:45;;;;;;;;;;;20.60;48.30;;;;;;5057418;28;19920;-60
2023/03/20 11:14:18;;;;;;;;;;;20.60;48.90;;;;;;5057439;28;20306;-60
2023/03/20 11:16:48;;;;;;;;;;;20.60;48.30;;;;;;5058508;28;19924;-60
2023/03/20 11:19:16;;;;;;;;;;;20.60;48.30;;;;;;5057261;28;19934;-61
2023/03/20 11:21:45;;;;;;;;;;;20.60;48.30;;;;;;5048635;28;19920;-60
2023/03/20 11:24:23;;;;;;;;;;;20.60;48.30;;;;;;5059747;28;19928;-60
2023/03/20 11:26:52;;;;;;;;;;;20.60;48.30;;;;;;5056286;28;20309;-61
2023/03/20 11:29:22;;;;;;;;;;;20.60;48.30;;;;;;5072882;28;19931;-61
2023/03/20 11:31:49;;;;;;;;;;;20.60;48.30;;;;;;5064403;28;19977;-60
2023/03/20 11:34:22;;;;;;;;;;;20.60;48.20;;;;;;5075028;28;19924;-61
2023/03/20 11:36:53;;;;;;;;;;;20.60;48.30;;;;;;5051829;28;20282;-60
2023/03/20 11:39:22;;;;;;;;;;;20.60;48.20;;;;;;5057057;28;19920;-59
2023/03/20 11:41:50;;;;;;;;;;;20.60;48.30;;;;;;5057721;28;19924;-62
2023/03/20 11:44:24;;;;;;;;;;;20.60;48.20;;;;;;5055414;28;19920;-60
2023/03/20 11:46:56;;;;;;;;;;;20.60;48.30;;;;;;5063521;28;19924;-61
2023/03/20 11:49:24;;;;;;;;;;;20.60;48.20;;;;;;5072862;28;19985;-60
2023/03/20 11:51:51;;;;;;;;;;;20.60;48.20;;;;;;5091270;28;20026;-61
2023/03/20 11:54:18;;;;;;;;;;;20.60;48.20;;;;;;5068187;28;20314;-61
2023/03/20 11:56:51;;;;;;;;;;;20.60;48.20;;;;;;5053565;28;19966;-63
2023/03/20 11:59:18;;;;;;;;;;;20.60;48.20;;;;;;5052465;28;19968;-62
2023/03/20 12:01:47;;;;;;;;;;;20.60;48.20;;;;;;5052734;28;19927;-62
2023/03/20 12:04:15;;;;;;;;;;;20.60;48.30;;;;;;5051712;28;19924;-59
2023/03/20 12:06:43;;;;;;;;;;;20.60;48.30;;;;;;5059223;28;19924;-60
2023/03/20 12:09:12;;;;;;;;;;;20.60;48.40;;;;;;5072345;28;19928;-61
2023/03/20 12:11:41;;;;;;;;;;;20.60;48.20;;;;;;5090813;28;19962;-61
2023/03/20 12:14:08;;;;;;;;;;;20.60;48.20;;;;;;5072346;28;19928;-63
2023/03/20 12:16:35;;;;;;;;;;;20.60;48.20;;;;;;5081321;28;19932;-60
2023/03/20 12:19:04;;;;;;;;;;;20.60;48.20;;;;;;5049200;28;19920;-62
2023/03/20 12:21:33;;;;;;;;;;;20.60;48.20;;;;;;5056507;28;19927;-61
2023/03/20 12:24:01;;;;;;;;;;;20.60;48.20;;;;;;5057102;28;19968;-63
2023/03/20 12:26:29;;;;;;;;;;;20.60;48.20;;;;;;5052630;28;19921;-61
2023/03/20 12:28:56;;;;;;;;;;;20.60;48.20;;;;;;5052612;28;20402;-60
2023/03/20 12:31:24;;;;;;;;;;;20.60;48.20;;;;;;5054861;28;19931;-62
2023/03/20 12:33:52;;;;;;;;;;;20.60;48.20;;;;;;5072767;28;19935;-61
2023/03/20 12:36:21;;;;;;;;;;;20.60;48.20;;;;;;5072388;28;19928;-60
2023/03/20 12:38:48;;;;;;;;;;;20.60;48.20;;;;;;5072304;28;19965;-60
2023/03/20 12:41:15;;;;;;;;;;;20.60;48.20;;;;;;5071834;28;19931;-60
2023/03/20 12:43:54;;;;;;;;;;;20.60;48.20;;;;;;5052188;28;19976;-60
2023/03/20 12:46:23;;;;;;;;;;;20.60;48.20;;;;;;5052521;28;19920;-60
2023/03/20 12:48:53;;;;;;;;;;;20.60;48.20;;;;;;5052365;28;19966;-61
2023/03/20 12:51:23;;;;;;;;;;;20.60;48.20;;;;;;5052300;28;19920;-60
2023/03/20 12:53:53;;;;;;;;;;;20.60;48.20;;;;;;5051985;28;19928;-60
2023/03/20 12:56:23;;;;;;;;;;;20.60;48.20;;;;;;5052540;28;19920;-60
2023/03/20 12:58:51;;;;;;;;;;;20.60;48.20;;;;;;5071868;28;19920;-55
2023/03/20 13:01:19;;;;;;;;;;;20.60;48.20;;;;;;5054015;28;19975;-56
2023/03/20 13:03:48;;;;;;;;;;;20.60;48.20;;;;;;5051202;28;20351;-56
2023/03/20 13:06:17;;;;;;;;;;;20.60;48.00;;;;;;5051893;28;19922;-55
2023/03/20 13:08:49;;;;;;;;;;;20.60;47.70;;;;;;5053155;28;19966;-56
2023/03/20 13:11:16;;;;;;;;;;;20.60;48.10;;;;;;5059401;28;19966;-55
2023/03/20 13:13:45;;;;;;;;;;;20.60;47.00;;;;;;5055688;28;19928;-55
2023/03/20 13:16:14;;;;;;;;;;;20.60;46.70;;;;;;5067518;28;19935;-57
2023/03/20 13:18:45;;;;;;;;;;;20.60;46.40;;;;;;5072592;28;19924;-55
2023/03/20 13:21:12;;;;;;;;;;;20.60;46.20;;;;;;5072195;28;19944;-55
2023/03/20 13:23:41;;;;;;;;;;;20.50;46.00;;;;;;5056682;28;19921;-56
2023/03/20 13:26:21;;;;;;;;;;;20.50;45.90;;;;;;5072027;28;20023;-56
2023/03/20 13:28:51;;;;;;;;;;;20.50;45.80;;;;;;5070935;28;19925;-57
2023/03/20 13:31:21;;;;;;;;;;;20.50;45.60;;;;;;5071632;28;19973;-55
2023/03/20 13:33:49;;;;;;;;;;;20.50;46.10;;;;;;5069587;28;20189;-55
2023/03/20 13:36:18;;;;;;;;;;;20.50;45.40;;;;;;5072932;28;19930;-56
2023/03/20 13:38:45;;;;;;;;;;;20.50;45.30;;;;;;5070268;28;19921;-56
2023/03/20 13:41:12;;;;;;;;;;;20.40;45.10;;;;;;5071048;28;19921;-56
2023/03/20 13:43:41;;;;;;;;;;;20.40;45.00;;;;;;5051538;28;19924;-54
2023/03/20 13:46:09;;;;;;;;;;;20.40;44.90;;;;;;5062896;28;19978;-55
2023/03/20 13:48:36;;;;;;;;;;;20.40;44.90;;;;;;5065610;28;19925;-56
2023/03/20 13:51:06;;;;;;;;;;;20.40;44.80;;;;;;5054397;28;19924;-56
2023/03/20 13:53:35;;;;;;;;;;;20.40;44.80;;;;;;5067752;28;19952;-57
2023/03/20 13:56:05;;;;;;;;;;;20.40;44.90;;;;;;5073585;28;20019;-56
2023/03/20 13:58:49;;;;;;;;;;;20.40;44.60;;;;;;5071602;28;20255;-56
2023/03/20 14:01:21;;;;;;;;;;;20.40;44.50;;;;;;5053102;28;20524;-57
2023/03/20 14:03:48;;;;;;;;;;;20.40;44.50;;;;;;5075191;28;20394;-55
2023/03/20 14:06:18;;;;;;;;;;;20.40;44.50;;;;;;5054730;28;19931;-55
2023/03/20 14:08:47;;;;;;;;;;;20.40;44.50;;;;;;5048272;28;19927;-56
2023/03/20 14:11:15;;;;;;;;;;;20.30;44.50;;;;;;5058653;28;19920;-55
2023/03/20 14:13:43;;;;;;;;;;;20.30;44.60;;;;;;5053070;28;19928;-55
2023/03/20 14:16:10;;;;;;;;;;;20.30;44.60;;;;;;5053338;28;19928;-54
2023/03/20 14:18:45;;;;;;;;;;;20.30;44.50;;;;;;5069613;28;19927;-56
2023/03/20 14:21:13;;;;;;;;;;;20.30;44.60;;;;;;5075838;28;19931;-55
2023/03/20 14:23:40;;;;;;;;;;;20.30;44.50;;;;;;5071423;28;20331;-54